• Join FlightAware (Why Join?)
  • Login
  • US Flag 
07:37PM EDT


 

Airport Tracker/Info


-or-


 

Live Flight TrackerFlight Track Log ✈ SWA22 ✈ 13-Apr-2013 ✈ KMDW - KAUS

Flight Track Log - Related Links

Times and Time Zones

All times are in EDT time to prevent confusion due to time zone crossing. See the SWA22 flight status page for this flight to view local times or setup timezone preferences in your user account.

Time Position Orientation Groundspeed Altitude Reporting Facility
EDT Latitude Longitude Course Direction KTS MPH feet Rate Location/Type
09:33PM 41.7889 -87.8044 201° Southwest 198 228 3,000  Level Chicago Center
09:34PM 41.7394 -87.8467 213° Southwest 209 241 6,200 3,480 Climbing Chicago Center
09:35PM 41.6833 -87.9033 217° Southwest 243 280 10,100 3,000 Climbing Chicago Center
09:36PM 41.6225 -87.9633 216° Southwest 269 310 12,400 3,000 Climbing Chicago Center
09:37PM 41.5375 -88.0464 216° Southwest 320 368 16,200 3,180 Climbing Chicago Center
09:38PM 41.2846 -88.2244 201° Southwest  Level FlightAware Approximate
09:38PM 41.4636 -88.1208 217° Southwest 345 397 18,900  Level Chicago Center
09:39PM 41.3797 -88.1908 212° Southwest 371 427 21,800 2,700 Climbing Chicago Center
09:40PM 41.2756 -88.2383 199° South 401 461 24,500 2,340 Climbing Chicago Center
09:41PM 41.1669 -88.2881 199° South 414 476 26,600 2,040 Climbing Chicago Center
09:42PM 41.0542 -88.3389 199° South 428 493 28,700 2,160 Climbing Chicago Center
09:43PM 40.9144 -88.4031 199° South 443 510 31,000 2,160 Climbing Chicago Center
09:44PM 40.8128 -88.4794 210° Southwest 424 488 33,200 1,740 Climbing Chicago Center
09:45PM 40.7222 -88.5769 219° Southwest 418 481 34,600 1,560 Climbing Chicago Center
09:46PM 40.6308 -88.6717 218° Southwest 419 482 36,400 1,800 Climbing Chicago Center
09:47PM 40.5436 -88.7669 220° Southwest 412 474 38,300 1,560 Climbing Chicago Center
09:48PM 40.4556 -88.8633 220° Southwest 408 470 39,600 780 Climbing Chicago Center
09:49PM 40.3703 -88.9550 219° Southwest 397 457 40,000 180 Climbing Chicago Center
09:50PM 40.2839 -89.0481 219° Southwest 398 458 40,000  Level Chicago Center
09:51PM 40.1969 -89.1383 218° Southwest 397 457 40,000  Level Chicago Center
09:52PM 40.1103 -89.2317 219° Southwest 399 459 40,000  Level Chicago Center
09:53PM 40.0225 -89.3217 218° Southwest 398 458 40,000  Level Chicago Center
09:54PM 39.9372 -89.4128 219° Southwest 395 455 40,000  Level Chicago Center
09:55PM 39.8511 -89.5017 218° Southwest 394 453 40,000  Level Chicago Center
09:56PM 39.7658 -89.5908 219° Southwest 392 451 40,000  Level Chicago Center
09:57PM 39.6753 -89.6853 219° Southwest 391 450 40,000  Level Kansas City Center
09:58PM 39.5911 -89.7736 219° Southwest 389 448 40,000  Level Kansas City Center
09:59PM 39.5064 -89.8600 218° Southwest 389 448 40,000  Level Kansas City Center
10:00PM 39.4211 -89.9483 219° Southwest 392 451 40,000  Level Kansas City Center
10:01PM 39.3369 -90.0358 219° Southwest 390 449 40,000  Level Kansas City Center
10:02PM 39.2525 -90.1222 218° Southwest 389 448 40,000  Level Kansas City Center
10:03PM 39.1672 -90.2092 218° Southwest 391 450 40,000  Level Kansas City Center
10:04PM 39.0828 -90.2956 218° Southwest 391 450 40,000  Level Kansas City Center
10:05PM 38.9997 -90.3817 219° Southwest 388 447 40,000  Level Kansas City Center
10:06PM 38.9008 -90.4797 218° Southwest 381 438 40,000  Level Kansas City Center
10:07PM 38.8172 -90.5633 218° Southwest 379 436 40,000  Level Kansas City Center
10:08PM 38.7306 -90.6503 218° Southwest 388 447 40,000  Level Kansas City Center
10:09PM 38.6508 -90.7294 218° Southwest 387 445 40,000  Level Kansas City Center
10:10PM 38.5664 -90.8136 218° Southwest 389 448 40,000  Level Kansas City Center
10:11PM 38.4822 -90.8989 218° Southwest 389 448 40,000  Level Kansas City Center
10:12PM 38.3964 -90.9836 218° Southwest 392 451 40,000  Level Kansas City Center
10:13PM 38.3111 -91.0672 218° Southwest 389 448 40,000  Level Kansas City Center
10:14PM 38.2250 -91.1508 217° Southwest 389 448 40,000  Level Kansas City Center
10:15PM 38.1289 -91.2450 218° Southwest 390 449 40,000  Level Kansas City Center
10:16PM 38.0419 -91.3300 218° Southwest 392 451 40,000  Level Kansas City Center
10:17PM 37.9539 -91.4164 218° Southwest 395 455 40,000  Level Kansas City Center
10:18PM 37.8667 -91.5031 218° Southwest 395 455 40,000  Level Kansas City Center
10:19PM 37.7783 -91.5883 217° Southwest 396 456 40,000  Level Kansas City Center
10:20PM 37.6906 -91.6736 218° Southwest 394 453 40,000  Level Kansas City Center
10:21PM 37.6042 -91.7583 218° Southwest 390 449 40,000  Level Kansas City Center
10:22PM 37.5169 -91.8411 217° Southwest 389 448 40,000  Level Kansas City Center
10:23PM 37.4306 -91.9261 218° Southwest 390 449 40,000  Level Kansas City Center
10:24PM 37.3433 -92.0089 217° Southwest 389 448 40,000  Level Kansas City Center
10:25PM 37.2561 -92.0931 218° Southwest 390 449 40,000  Level Kansas City Center
10:26PM 37.1664 -92.1783 217° Southwest 396 456 40,000  Level Kansas City Center
10:27PM 37.0797 -92.2614 217° Southwest 392 451 40,000  Level Kansas City Center
10:28PM 36.9919 -92.3450 217° Southwest 393 452 40,000  Level Kansas City Center
10:29PM 36.9039 -92.4278 217° Southwest 393 452 40,000  Level Kansas City Center
10:30PM 36.8344 -92.4903 216° Southwest 403 464 40,000  Level Memphis Center
10:31PM 36.7497 -92.5736 218° Southwest 398 458 40,000  Level Memphis Center
10:32PM 36.6628 -92.6539 217° Southwest 398 458 40,000  Level Memphis Center
10:33PM 36.5864 -92.7267 217° Southwest 398 458 40,000  Level Memphis Center
10:34PM 36.4975 -92.8067 216° Southwest 398 458 40,000  Level Memphis Center
10:35PM 36.4103 -92.8867 216° Southwest 398 458 40,000  Level Memphis Center
10:36PM 36.3211 -92.9689 217° Southwest 398 458 40,000  Level Memphis Center
10:37PM 36.2339 -93.0483 216° Southwest 398 458 40,000  Level Memphis Center
10:38PM 36.1467 -93.1303 217° Southwest 398 458 40,000  Level Memphis Center
10:39PM 36.0550 -93.2144 217° Southwest 403 464 40,000  Level Memphis Center
10:40PM 35.9678 -93.2936 216° Southwest 403 464 40,000  Level Memphis Center
10:41PM 35.8781 -93.3775 217° Southwest 403 464 40,000  Level Memphis Center
10:42PM 35.7864 -93.4586 216° Southwest 403 464 40,000  Level Memphis Center
10:43PM 35.6969 -93.5397 216° Southwest 403 464 40,000  Level Memphis Center
10:44PM 35.5986 -93.6278 216° Southwest 403 464 40,000  Level Memphis Center
10:45PM 35.5089 -93.7083 216° Southwest 408 470 40,000  Level Memphis Center
10:46PM 35.4214 -93.7839 215° Southwest 398 458 40,000  Level Memphis Center
10:47PM 35.3336 -93.8667 218° Southwest 398 458 40,000  Level Memphis Center
10:48PM 35.2436 -93.9469 216° Southwest 398 458 40,000  Level Memphis Center
10:49PM 35.1558 -94.0244 216° Southwest 398 458 40,000  Level Memphis Center
10:50PM 35.0681 -94.1017 216° Southwest 398 458 40,000  Level Memphis Center
10:52PM 34.8911 -94.2619 217° Southwest 395 455 40,000  Level Fort Worth Center
10:53PM 34.8033 -94.3411 217° Southwest 400 460 40,000  Level Fort Worth Center
10:54PM 34.7156 -94.4200 216° Southwest 400 460 40,000  Level Fort Worth Center
10:55PM 34.6236 -94.4989 215° Southwest 405 466 40,000  Level Fort Worth Center
10:56PM 34.5336 -94.5750 215° Southwest 405 466 40,000  Level Fort Worth Center
10:57PM 34.4436 -94.6561 217° Southwest 405 466 40,000  Level Fort Worth Center
10:58PM 34.3533 -94.7319 215° Southwest 405 466 40,000  Level Fort Worth Center
10:59PM 34.2633 -94.8100 216° Southwest 405 466 40,000  Level Fort Worth Center
11:00PM 34.1731 -94.8906 216° Southwest 405 466 40,000  Level Fort Worth Center
11:01PM 34.0808 -94.9686 215° Southwest 405 466 40,000  Level Fort Worth Center
11:02PM 33.9986 -95.0361 214° Southwest 405 466 40,000  Level Fort Worth Center
11:03PM 33.9103 -95.1136 216° Southwest 405 466 40,000  Level Fort Worth Center
11:04PM 33.8178 -95.1908 215° Southwest 405 466 40,000  Level Fort Worth Center
11:05PM 33.7294 -95.2681 216° Southwest 405 466 40,000  Level Fort Worth Center
11:06PM 33.6408 -95.3450 216° Southwest 400 460 40,000  Level Fort Worth Center
11:07PM 33.5503 -95.4194 214° Southwest 400 460 40,000  Level Fort Worth Center
11:08PM 33.4597 -95.4964 215° Southwest 400 460 40,000  Level Fort Worth Center
11:09PM 33.3689 -95.5728 215° Southwest 400 460 40,000  Level Fort Worth Center
11:10PM 33.2719 -95.6569 216° Southwest 400 460 40,000  Level Fort Worth Center
11:11PM 33.1833 -95.7306 215° Southwest 400 460 40,000  Level Fort Worth Center
11:12PM 33.0944 -95.8042 215° Southwest 400 460 40,000  Level Fort Worth Center
11:13PM 33.0036 -95.8775 214° Southwest 400 460 40,000  Level Fort Worth Center
11:14PM 32.9167 -95.9508 215° Southwest 392 451 40,000  Level Fort Worth Center
11:15PM 32.8278 -96.0217 214° Southwest 392 451 40,000  Level Fort Worth Center
11:16PM 32.7492 -96.0894 216° Southwest 392 451 40,000  Level Fort Worth Center
11:17PM 32.6603 -96.1622 215° Southwest 392 451 40,000  Level Fort Worth Center
11:18PM 32.5669 -96.2400 215° Southwest 399 459 40,000  Level Fort Worth Center
11:19PM 32.4758 -96.3125 214° Southwest 399 459 40,000  Level Fort Worth Center
11:20PM 32.3825 -96.3900 215° Southwest 399 459 40,000  Level Fort Worth Center
11:21PM 32.2808 -96.4722 214° Southwest 405 466 40,000  Level Fort Worth Center
11:22PM 32.1917 -96.5492 216° Southwest 410 472 40,000  Level Fort Worth Center
11:23PM 32.0961 -96.6261 214° Southwest 410 472 40,000  Level Fort Worth Center
11:24PM 32.0025 -96.7028 215° Southwest 410 472 40,000  Level Fort Worth Center
11:25PM 31.9172 -96.7744 216° Southwest 399 459 40,000 -900 Level Fort Worth Center
11:26PM 31.8258 -96.8486 215° Southwest 399 459 38,300 -2,460 Descending Fort Worth Center
11:28PM 31.6869 -96.9567 214° Southwest 394 453 33,700 -2,880 Descending Houston Center
11:29PM 31.5925 -97.0331 215° Southwest 404 465 30,900 -2,580 Descending Houston Center
11:30PM 31.4933 -97.0994 210° Southwest 408 470 28,500 -2,460 Descending Houston Center
11:31PM 31.3831 -97.1397 197° South 411 473 26,000 -2,460 Descending Houston Center
11:32PM 31.2817 -97.1803 199° South 387 445 23,600 -2,040 Descending Houston Center
11:33PM 31.1828 -97.2192 199° South 373 429 22,000 -1,800 Descending Houston Center
11:34PM 31.0872 -97.2567 199° South 363 418 20,000 -2,520 Descending Houston Center
11:35PM 30.9928 -97.2947 199° South 359 413 17,000 -2,520 Descending Houston Center
11:36PM 30.8989 -97.3297 198° South 367 422 15,000 -2,040 Descending Houston Center
11:37PM 30.8122 -97.3689 201° Southwest 338 389 12,900 -2,160 Descending Houston Center
11:38PM 30.7328 -97.4172 208° Southwest 321 369 10,700 -1,980 Descending Houston Center
11:39PM 30.6633 -97.4597 208° Southwest 289 333 9,000 -1,980 Descending Houston Center
11:40PM 30.5958 -97.4989 207° Southwest 273 314 6,800 -1,920 Descending Houston Center
11:41PM 30.5278 -97.5414 208° Southwest 274 315 5,200 -1,440 Descending Houston Center
11:42PM 30.4603 -97.5806 207° Southwest 271 312 3,900 -1,080 Descending Houston Center
11:43PM 30.3989 -97.6181 208° Southwest 256 295 3,100 -720 Descending Houston Center
11:44PM 30.3469 -97.6492 207° Southwest 225 259 2,500 -540 Descending Houston Center
11:45PM 30.3008 -97.6744 205° Southwest 197 227 2,100 -480 Descending Houston Center
11:46PM 30.2689 -97.6822 192° South 141 162 1,600 -600 Descending Houston Center
11:47PM 30.2350 -97.6808 178° South 125 144 900 -720 Descending Houston Center
11:49PM 30.1945 -97.6699 221° Southwest  Level Estimated